createdAt,value
2023-05-11T00:02:10.596Z,101007.63
2023-05-11T00:04:39.256Z,101009.63
2023-05-11T00:07:08.938Z,101012.97
2023-05-11T00:09:38.490Z,101010.34
2023-05-11T00:12:07.802Z,101010.75
2023-05-11T00:14:36.099Z,101014.16
2023-05-11T00:17:04.344Z,101014.84
2023-05-11T00:19:32.779Z,101010.06
2023-05-11T00:22:01.445Z,101009.41
2023-05-11T00:24:31.284Z,101021.97
2023-05-11T00:26:59.604Z,101016.22
2023-05-11T00:29:27.874Z,101013.56
2023-05-11T00:31:56.251Z,101024.72
2023-05-11T00:34:24.657Z,101024.56
2023-05-11T00:36:52.944Z,101020.22
2023-05-11T00:39:21.480Z,101025.03
2023-05-11T00:41:51.113Z,101017.22
2023-05-11T00:44:19.336Z,101020.88
2023-05-11T00:46:47.794Z,101022.53
2023-05-11T00:49:17.398Z,101024.78
2023-05-11T00:51:46.435Z,101028.94
2023-05-11T00:54:15.855Z,101034.81
2023-05-11T00:56:44.141Z,101026.22
2023-05-11T00:59:14.109Z,101032.78
2023-05-11T01:01:42.431Z,101031.59
2023-05-11T01:04:11.109Z,101024.09
2023-05-11T01:06:52.554Z,101032.28
2023-05-11T01:09:33.466Z,101025.84
2023-05-11T01:12:13.929Z,101027.88
2023-05-11T01:14:55.750Z,101020.72
2023-05-11T01:17:32.778Z,101025.69
2023-05-11T01:20:07.537Z,101032.19
2023-05-11T01:22:57.849Z,101030.16
2023-05-11T01:25:56.171Z,101034.84
2023-05-11T01:29:03.253Z,101037.03
2023-05-11T01:31:35.438Z,101027.56
2023-05-11T01:34:10.391Z,101027.31
2023-05-11T01:36:49.470Z,101025.28
2023-05-11T01:39:22.597Z,101024.00
2023-05-11T01:41:54.716Z,101039.84
2023-05-11T01:44:26.815Z,101034.06
2023-05-11T01:46:57.446Z,101034.03
2023-05-11T01:49:26.123Z,101036.91
2023-05-11T01:51:56.146Z,101038.78
2023-05-11T01:54:26.091Z,101038.38
2023-05-11T01:56:55.518Z,101037.28
2023-05-11T01:59:25.831Z,101043.88
2023-05-11T02:01:56.312Z,101040.78
2023-05-11T02:04:26.207Z,101051.63
2023-05-11T02:06:56.307Z,101044.34
2023-05-11T02:09:25.942Z,101051.59
2023-05-11T02:11:57.643Z,101049.31
2023-05-11T02:14:28.502Z,101055.34
2023-05-11T02:16:59.099Z,101054.16
2023-05-11T02:19:29.122Z,101044.44
2023-05-11T02:21:58.044Z,101057.72
2023-05-11T02:24:28.454Z,101053.44
2023-05-11T02:26:57.118Z,101054.69
2023-05-11T02:29:25.573Z,101059.75
2023-05-11T02:32:02.049Z,101055.78
2023-05-11T02:34:34.058Z,101051.16
2023-05-11T02:37:07.679Z,101057.16
2023-05-11T02:39:37.708Z,101050.16
2023-05-11T02:42:13.586Z,101049.59
2023-05-11T02:44:48.243Z,101056.03
2023-05-11T02:47:20.968Z,101040.78
2023-05-11T02:49:53.794Z,101034.97
2023-05-11T02:52:25.033Z,101037.00
2023-05-11T02:54:56.537Z,101026.16
2023-05-11T02:57:25.876Z,101036.03
2023-05-11T02:59:54.429Z,101035.22
2023-05-11T03:02:24.465Z,101029.78
2023-05-11T03:04:52.888Z,101036.53
2023-05-11T03:07:21.242Z,101032.09
2023-05-11T03:09:49.701Z,101024.19
2023-05-11T03:12:18.198Z,101025.94
2023-05-11T03:14:46.875Z,101024.19
2023-05-11T03:17:16.945Z,101016.28
2023-05-11T03:19:46.711Z,101020.16
2023-05-11T03:22:16.060Z,101014.47
2023-05-11T03:24:45.086Z,101016.28
2023-05-11T03:27:13.682Z,101015.25
2023-05-11T03:29:44.548Z,101013.47
2023-05-11T03:32:13.340Z,101022.56
2023-05-11T03:34:41.754Z,101017.13
2023-05-11T03:37:13.615Z,101019.97
2023-05-11T03:39:44.955Z,101023.41
2023-05-11T03:42:15.431Z,101022.53
2023-05-11T03:44:47.449Z,101023.19
2023-05-11T03:47:18.628Z,101019.31
2023-05-11T03:49:47.348Z,101017.56
2023-05-11T03:52:17.353Z,101014.97
2023-05-11T03:54:45.772Z,101020.09
2023-05-11T03:57:15.683Z,101023.16
2023-05-11T03:59:43.974Z,101023.09
2023-05-11T04:02:12.640Z,101023.44
2023-05-11T04:04:41.055Z,101019.31
2023-05-11T04:07:09.322Z,101014.69
2023-05-11T04:09:38.996Z,101017.16
2023-05-11T04:12:07.936Z,101021.72
2023-05-11T04:14:36.210Z,101022.72
2023-05-11T04:17:04.485Z,101028.13
2023-05-11T04:19:32.754Z,101024.84
2023-05-11T04:22:00.994Z,101024.28
2023-05-11T04:24:29.278Z,101031.06
2023-05-11T04:26:59.098Z,101030.50
2023-05-11T04:29:27.466Z,101038.47
2023-05-11T04:31:56.083Z,101043.88
2023-05-11T04:34:24.442Z,101050.59
2023-05-11T04:36:53.055Z,101051.75
2023-05-11T04:39:21.769Z,101053.13
2023-05-11T04:41:50.099Z,101053.56
2023-05-11T04:44:19.707Z,101055.56
2023-05-11T04:46:48.119Z,101060.78
2023-05-11T04:49:16.377Z,101060.66
2023-05-11T04:51:44.720Z,101055.44
2023-05-11T04:54:12.986Z,101056.03
2023-05-11T04:56:41.491Z,101055.84
2023-05-11T04:59:09.736Z,101062.06
2023-05-11T05:01:39.454Z,101063.91
2023-05-11T05:04:08.204Z,101061.16
2023-05-11T05:06:38.259Z,101070.34
2023-05-11T05:09:07.017Z,101068.19
2023-05-11T05:11:35.336Z,101071.63
2023-05-11T05:14:03.577Z,101072.78
2023-05-11T05:16:32.737Z,101078.78
2023-05-11T05:19:02.512Z,101071.31
2023-05-11T05:21:30.915Z,101078.78
2023-05-11T05:23:59.171Z,101071.75
2023-05-11T05:26:27.495Z,101084.44
2023-05-11T05:28:55.744Z,101077.81
2023-05-11T05:31:25.160Z,101081.03
2023-05-11T05:33:53.570Z,101076.69
2023-05-11T05:36:23.163Z,101091.13
2023-05-11T05:38:51.427Z,101092.81
2023-05-11T05:41:22.296Z,101095.47
2023-05-11T05:43:51.610Z,101093.59
2023-05-11T05:46:19.891Z,101099.81
2023-05-11T05:48:48.199Z,101107.41
2023-05-11T05:51:16.484Z,101106.22
2023-05-11T05:53:46.584Z,101120.28
2023-05-11T05:56:14.850Z,101112.03
2023-05-11T05:58:43.394Z,101108.13
2023-05-11T06:01:11.746Z,101118.44
2023-05-11T06:03:40.737Z,101119.59
2023-05-11T06:06:09.216Z,101115.50
2023-05-11T06:08:37.462Z,101120.06
2023-05-11T06:11:07.182Z,101118.97
2023-05-11T06:13:35.393Z,101117.47
2023-05-11T06:16:03.668Z,101116.94
2023-05-11T06:18:31.987Z,101115.22
2023-05-11T06:21:00.671Z,101119.13
2023-05-11T06:23:28.935Z,101108.41
2023-05-11T06:25:57.216Z,101107.66
2023-05-11T06:28:26.808Z,101116.88
2023-05-11T06:30:59.233Z,101124.16
2023-05-11T06:33:27.642Z,101115.25
2023-05-11T06:35:55.929Z,101115.84
2023-05-11T06:38:24.441Z,101115.25
2023-05-11T06:40:54.286Z,101109.25
2023-05-11T06:43:22.562Z,101112.41
2023-05-11T06:45:52.332Z,101113.56
2023-05-11T06:48:23.375Z,101123.38
2023-05-11T06:50:51.660Z,101110.81
2023-05-11T06:53:19.971Z,101118.84
2023-05-11T06:55:48.706Z,101122.66
2023-05-11T06:58:20.563Z,101119.38
2023-05-11T07:00:49.014Z,101111.22
2023-05-11T07:03:18.711Z,101111.38
2023-05-11T07:05:46.952Z,101121.25
2023-05-11T07:08:15.309Z,101114.75
2023-05-11T07:10:43.577Z,101120.06
2023-05-11T07:13:11.857Z,101113.06
2023-05-11T07:15:40.100Z,101110.34
2023-05-11T07:18:08.372Z,101117.56
2023-05-11T07:20:40.039Z,101107.78
2023-05-11T07:23:08.379Z,101114.25
2023-05-11T07:25:36.767Z,101119.44
2023-05-11T07:28:05.060Z,101109.50
2023-05-11T07:30:33.349Z,101107.81
2023-05-11T07:33:02.610Z,101109.16
2023-05-11T07:35:31.082Z,101118.41
2023-05-11T07:38:00.730Z,101118.78
2023-05-11T07:40:28.988Z,101119.47
2023-05-11T07:42:57.245Z,101111.75
2023-05-11T07:45:25.657Z,101113.81
2023-05-11T07:47:53.942Z,101120.56
2023-05-11T07:50:24.425Z,101118.34
2023-05-11T07:52:53.151Z,101118.75
2023-05-11T07:55:25.071Z,101125.16
2023-05-11T07:57:54.549Z,101118.69
2023-05-11T08:00:23.498Z,101121.47
2023-05-11T08:02:52.849Z,101122.63
2023-05-11T08:05:22.119Z,101121.59
2023-05-11T08:07:50.512Z,101115.25
2023-05-11T08:10:18.985Z,101118.47
2023-05-11T08:12:48.640Z,101112.72
2023-05-11T08:15:17.081Z,101113.34
2023-05-11T08:17:46.217Z,101118.75
2023-05-11T08:20:15.100Z,101122.63
2023-05-11T08:22:43.418Z,101122.97
2023-05-11T08:25:12.158Z,101124.25
2023-05-11T08:27:40.726Z,101128.41
2023-05-11T08:30:12.186Z,101120.78
2023-05-11T08:32:50.557Z,101116.06
2023-05-11T08:35:26.573Z,101123.78
2023-05-11T08:37:54.811Z,101123.19
2023-05-11T08:40:24.814Z,101124.38
2023-05-11T08:42:56.756Z,101125.31
2023-05-11T08:45:27.753Z,101129.41
2023-05-11T08:47:56.410Z,101132.25
2023-05-11T08:50:25.426Z,101135.38
2023-05-11T08:52:53.672Z,101134.28
2023-05-11T08:55:23.361Z,101139.25
2023-05-11T08:57:52.679Z,101140.28
2023-05-11T09:00:23.366Z,101140.84
2023-05-11T09:02:53.532Z,101144.69
2023-05-11T09:05:22.254Z,101137.47
2023-05-11T09:07:55.406Z,101135.47
2023-05-11T09:10:23.936Z,101135.88
2023-05-11T09:12:52.220Z,101139.41
2023-05-11T09:15:21.018Z,101138.78
2023-05-11T09:17:49.372Z,101134.31
2023-05-11T09:20:29.127Z,101134.59
2023-05-11T09:22:58.441Z,101127.41
2023-05-11T09:25:28.094Z,101133.53
2023-05-11T09:27:58.835Z,101137.00
2023-05-11T09:30:27.650Z,101132.78
2023-05-11T09:32:57.968Z,101130.84
2023-05-11T09:35:29.718Z,101138.34
2023-05-11T09:38:07.843Z,101136.44
2023-05-11T09:40:38.322Z,101133.59
2023-05-11T09:43:18.554Z,101134.28
2023-05-11T09:45:48.359Z,101136.88
2023-05-11T09:48:30.686Z,101137.91
2023-05-11T09:51:05.649Z,101133.03
2023-05-11T09:53:43.888Z,101138.16
2023-05-11T09:56:13.760Z,101138.09
2023-05-11T09:58:51.674Z,101138.69
2023-05-11T10:01:30.837Z,101139.97
2023-05-11T10:04:17.967Z,101145.63
2023-05-11T10:06:54.189Z,101149.16
2023-05-11T10:09:26.075Z,101142.84
2023-05-11T10:11:56.314Z,101144.31
2023-05-11T10:14:26.188Z,101134.69
2023-05-11T10:16:58.052Z,101133.00
2023-05-11T10:19:26.986Z,101139.22
2023-05-11T10:21:57.771Z,101135.81
2023-05-11T10:24:27.111Z,101135.75
2023-05-11T10:26:57.696Z,101130.50
2023-05-11T10:29:26.088Z,101138.88
2023-05-11T10:31:54.838Z,101125.44
2023-05-11T10:34:25.171Z,101127.63
2023-05-11T10:36:54.094Z,101128.81
2023-05-11T10:39:24.164Z,101128.19
2023-05-11T10:42:21.693Z,101131.00
2023-05-11T10:45:16.118Z,101129.78
2023-05-11T10:48:36.974Z,101128.38
2023-05-11T10:51:56.072Z,101128.31
2023-05-11T10:54:53.312Z,101122.63
2023-05-11T10:57:53.658Z,101126.63
2023-05-11T11:01:19.186Z,101128.19
2023-05-11T11:03:59.426Z,101137.31
2023-05-11T11:06:29.246Z,101134.06
2023-05-11T11:08:59.764Z,101134.63
2023-05-11T11:11:36.218Z,101131.25
2023-05-11T11:14:06.146Z,101129.28
2023-05-11T11:16:35.062Z,101129.44
2023-05-11T11:19:38.552Z,101123.34
2023-05-11T11:22:17.952Z,101122.22
2023-05-11T11:24:48.008Z,101125.22
2023-05-11T11:27:17.678Z,101120.97
2023-05-11T11:30:18.455Z,101115.56
2023-05-11T11:32:48.077Z,101119.44
2023-05-11T11:35:48.813Z,101114.97
2023-05-11T11:38:19.520Z,101115.81
2023-05-11T11:40:51.799Z,101118.50
2023-05-11T11:43:24.743Z,101112.56
2023-05-11T11:45:55.884Z,101111.09
2023-05-11T11:48:31.430Z,101107.13
2023-05-11T11:51:05.193Z,101106.06
2023-05-11T11:54:07.802Z,101117.22
2023-05-11T11:56:43.724Z,101101.56
2023-05-11T11:59:16.955Z,101114.38
2023-05-11T12:01:46.566Z,101105.97
2023-05-11T12:04:58.028Z,101108.34
2023-05-11T12:07:27.421Z,101106.41
2023-05-11T12:09:56.859Z,101109.16
2023-05-11T12:12:25.199Z,101095.06
2023-05-11T12:14:54.934Z,101102.50
2023-05-11T12:17:29.774Z,101099.59
2023-05-11T12:20:13.971Z,101103.66
2023-05-11T12:22:42.429Z,101104.88
2023-05-11T12:25:12.614Z,101101.88
2023-05-11T12:27:50.669Z,101098.56
2023-05-11T12:30:25.130Z,101097.31
2023-05-11T12:32:57.669Z,101098.03
2023-05-11T12:35:28.312Z,101100.28
2023-05-11T12:37:58.181Z,101096.56
2023-05-11T12:40:27.101Z,101083.25
2023-05-11T12:42:57.440Z,101090.75
2023-05-11T12:45:29.349Z,101083.78
2023-05-11T12:47:58.829Z,101082.28
2023-05-11T12:50:27.588Z,101082.69
2023-05-11T12:52:56.143Z,101077.09
2023-05-11T12:55:31.263Z,101076.72
2023-05-11T12:58:09.729Z,101073.34
2023-05-11T13:00:51.284Z,101075.41
2023-05-11T13:03:23.985Z,101080.44
2023-05-11T13:05:52.662Z,101073.63
2023-05-11T13:08:21.362Z,101075.13
2023-05-11T13:10:49.636Z,101072.84
2023-05-11T13:13:30.748Z,101074.25
2023-05-11T13:16:00.614Z,101067.31
2023-05-11T13:18:29.011Z,101070.06
2023-05-11T13:21:08.602Z,101067.28
2023-05-11T13:23:37.355Z,101062.84
2023-05-11T13:26:05.910Z,101067.53
2023-05-11T13:28:35.563Z,101066.97
2023-05-11T13:31:05.773Z,101067.75
2023-05-11T13:33:34.643Z,101066.19
2023-05-11T13:36:03.600Z,101061.63
2023-05-11T13:38:31.866Z,101061.94
2023-05-11T13:41:00.175Z,101058.78
2023-05-11T13:43:28.419Z,101062.53
2023-05-11T13:45:56.825Z,101066.06
2023-05-11T13:48:26.578Z,101064.94
2023-05-11T13:50:54.848Z,101061.28
2023-05-11T13:53:23.393Z,101063.41
2023-05-11T13:55:52.258Z,101061.44
2023-05-11T13:58:20.824Z,101055.13
2023-05-11T14:01:06.613Z,101056.09
2023-05-11T14:03:37.430Z,101053.88
2023-05-11T14:06:06.793Z,101054.69
2023-05-11T14:08:35.091Z,101059.78
2023-05-11T14:11:03.354Z,101059.44
2023-05-11T14:13:31.697Z,101054.78
2023-05-11T14:15:59.955Z,101058.56
2023-05-11T14:18:28.357Z,101060.19
2023-05-11T14:20:58.450Z,101054.31
2023-05-11T14:23:26.840Z,101063.69
2023-05-11T14:25:55.092Z,101058.03
2023-05-11T14:28:24.019Z,101053.03
2023-05-11T14:30:52.329Z,101057.78
2023-05-11T14:33:20.628Z,101055.50
2023-05-11T14:35:50.007Z,101052.13
2023-05-11T14:38:19.766Z,101053.84
2023-05-11T14:40:49.108Z,101052.41
2023-05-11T14:43:18.488Z,101056.06
2023-05-11T14:45:46.805Z,101060.66
2023-05-11T14:48:15.111Z,101055.28
2023-05-11T14:50:44.105Z,101059.19
2023-05-11T14:53:12.750Z,101049.69
2023-05-11T14:55:42.508Z,101058.91
2023-05-11T14:58:11.120Z,101055.72
2023-05-11T15:00:40.391Z,101055.53
2023-05-11T15:03:10.768Z,101051.56
2023-05-11T15:05:39.473Z,101046.03
2023-05-11T15:08:18.343Z,101049.41
2023-05-11T15:10:55.860Z,101050.94
2023-05-11T15:13:24.419Z,101051.25
2023-05-11T15:15:53.270Z,101050.78
2023-05-11T15:18:21.636Z,101054.06
2023-05-11T15:20:50.471Z,101048.41
2023-05-11T15:23:18.944Z,101059.44
2023-05-11T15:25:48.493Z,101055.28
2023-05-11T15:28:18.241Z,101061.81
2023-05-11T15:30:48.059Z,101075.63
2023-05-11T15:33:16.522Z,101071.31
2023-05-11T15:35:44.924Z,101081.78
2023-05-11T15:38:13.294Z,101086.81
2023-05-11T15:40:42.233Z,101081.50
2023-05-11T15:43:10.777Z,101089.75
2023-05-11T15:45:40.736Z,101092.03
2023-05-11T15:48:09.709Z,101086.16
2023-05-11T15:50:38.505Z,101090.72
2023-05-11T15:53:07.086Z,101093.09
2023-05-11T15:55:35.659Z,101088.22
2023-05-11T15:58:08.353Z,101084.09
2023-05-11T16:00:36.974Z,101085.53
2023-05-11T16:03:07.553Z,101090.00
2023-05-11T16:05:37.181Z,101093.31
2023-05-11T16:08:06.437Z,101086.56
2023-05-11T16:10:35.797Z,101082.38
2023-05-11T16:13:04.322Z,101074.03
2023-05-11T16:15:33.547Z,101072.81
2023-05-11T16:18:04.588Z,101075.88
2023-05-11T16:20:35.170Z,101071.91
2023-05-11T16:23:04.240Z,101075.81
2023-05-11T16:25:32.884Z,101080.84
2023-05-11T16:28:01.530Z,101081.38
2023-05-11T16:30:30.327Z,101077.53
2023-05-11T16:32:59.132Z,101079.84
2023-05-11T16:35:28.008Z,101083.50
2023-05-11T16:37:59.741Z,101085.19
2023-05-11T16:40:28.307Z,101081.25
2023-05-11T16:42:57.189Z,101083.19
2023-05-11T16:45:25.816Z,101089.06
2023-05-11T16:47:54.492Z,101083.16
2023-05-11T16:50:23.393Z,101086.25
2023-05-11T16:52:51.988Z,101094.31
2023-05-11T16:55:22.262Z,101084.03
2023-05-11T16:57:51.641Z,101086.81
2023-05-11T17:00:20.870Z,101089.03
2023-05-11T17:02:50.762Z,101089.59
2023-05-11T17:05:21.500Z,101090.78
2023-05-11T17:07:50.125Z,101084.91
2023-05-11T17:10:18.892Z,101090.38
2023-05-11T17:12:48.996Z,101086.50
2023-05-11T17:15:17.648Z,101077.59
2023-05-11T17:17:46.244Z,101084.09
2023-05-11T17:20:15.907Z,101087.09
2023-05-11T17:22:45.266Z,101088.53
2023-05-11T17:25:14.025Z,101081.22
2023-05-11T17:27:43.036Z,101077.66
2023-05-11T17:30:13.701Z,101084.63
2023-05-11T17:32:42.398Z,101072.88
2023-05-11T17:35:11.578Z,101079.06
2023-05-11T17:37:40.393Z,101078.97
2023-05-11T17:40:10.571Z,101080.63
2023-05-11T17:42:39.070Z,101076.78
2023-05-11T17:45:08.787Z,101081.81
2023-05-11T17:47:38.756Z,101074.84
2023-05-11T17:50:08.268Z,101082.13
2023-05-11T17:52:36.997Z,101082.94
2023-05-11T17:55:06.522Z,101084.03
2023-05-11T17:57:35.041Z,101084.28
2023-05-11T18:00:03.553Z,101094.66
2023-05-11T18:02:32.359Z,101091.84
2023-05-11T18:05:02.846Z,101095.75
2023-05-11T18:07:31.374Z,101089.91
2023-05-11T18:10:00.408Z,101091.03
2023-05-11T18:12:30.390Z,101097.75
2023-05-11T18:14:59.508Z,101099.16
2023-05-11T18:17:28.108Z,101096.38
2023-05-11T18:19:56.624Z,101096.50
2023-05-11T18:22:26.518Z,101100.88
2023-05-11T18:24:55.066Z,101094.81
2023-05-11T18:27:23.637Z,101094.63
2023-05-11T18:29:52.496Z,101098.44
2023-05-11T18:32:21.113Z,101098.16
2023-05-11T18:34:49.683Z,101108.00
2023-05-11T18:37:18.226Z,101102.25
2023-05-11T18:39:49.657Z,101097.94
2023-05-11T18:42:19.126Z,101110.00
2023-05-11T18:44:47.654Z,101110.44
2023-05-11T18:47:17.658Z,101102.94
2023-05-11T18:49:48.388Z,101114.19
2023-05-11T18:52:17.971Z,101114.47
2023-05-11T18:54:47.906Z,101118.41
2023-05-11T18:57:18.867Z,101120.13
2023-05-11T18:59:47.527Z,101115.97
2023-05-11T19:02:16.209Z,101124.34
2023-05-11T19:04:44.801Z,101115.41
2023-05-11T19:07:13.317Z,101117.09
2023-05-11T19:09:41.958Z,101123.50
2023-05-11T19:12:11.907Z,101122.38
2023-05-11T19:14:40.519Z,101126.00
2023-05-11T19:17:09.014Z,101128.81
2023-05-11T19:19:37.581Z,101129.63
2023-05-11T19:22:07.012Z,101133.84
2023-05-11T19:24:37.628Z,101130.31
2023-05-11T19:27:08.068Z,101127.03
2023-05-11T19:29:38.144Z,101130.00
2023-05-11T19:32:07.371Z,101133.47
2023-05-11T19:34:36.190Z,101137.69
2023-05-11T19:37:04.814Z,101137.59
2023-05-11T19:39:33.346Z,101137.97
2023-05-11T19:42:01.969Z,101135.19
2023-05-11T19:44:32.878Z,101149.19
2023-05-11T19:47:02.924Z,101150.06
2023-05-11T19:49:31.416Z,101154.47
2023-05-11T19:51:59.964Z,101147.19
2023-05-11T19:54:28.493Z,101149.72
2023-05-11T19:56:57.496Z,101147.53
2023-05-11T19:59:32.405Z,101148.09
2023-05-11T20:02:03.030Z,101150.06
2023-05-11T20:04:32.446Z,101144.94
2023-05-11T20:07:01.006Z,101153.34
2023-05-11T20:09:29.575Z,101153.13
2023-05-11T20:11:58.106Z,101153.41
2023-05-11T20:14:27.252Z,101152.00
2023-05-11T20:16:55.740Z,101156.47
2023-05-11T20:19:25.613Z,101150.03
2023-05-11T20:21:54.106Z,101148.66
2023-05-11T20:24:22.654Z,101155.91
2023-05-11T20:26:51.168Z,101155.06
2023-05-11T20:29:19.665Z,101145.59
2023-05-11T20:31:48.252Z,101145.31
2023-05-11T20:34:17.031Z,101150.03
2023-05-11T20:36:48.710Z,101146.84
2023-05-11T20:39:17.405Z,101151.16
2023-05-11T20:41:45.901Z,101136.28
2023-05-11T20:44:14.430Z,101143.91
2023-05-11T20:46:43.786Z,101143.31
2023-05-11T20:49:16.761Z,101143.97
2023-05-11T20:51:53.737Z,101145.47
2023-05-11T20:54:22.679Z,101134.19
2023-05-11T20:56:51.396Z,101137.41
2023-05-11T21:01:51.518Z,101134.00
2023-05-11T21:04:20.061Z,101130.34
2023-05-11T21:06:48.807Z,101142.66
2023-05-11T21:09:18.678Z,101136.31
2023-05-11T21:11:48.403Z,101136.53
2023-05-11T21:14:16.985Z,101133.47
2023-05-11T21:16:45.558Z,101129.53
2023-05-11T21:19:15.920Z,101128.19
2023-05-11T21:21:44.455Z,101128.81
2023-05-11T21:24:13.991Z,101129.31
2023-05-11T21:26:47.895Z,101128.31
2023-05-11T21:29:16.769Z,101130.31
2023-05-11T21:31:45.333Z,101124.63
2023-05-11T21:34:13.881Z,101124.59
2023-05-11T21:36:42.437Z,101128.19
2023-05-11T21:39:13.040Z,101124.28
2023-05-11T21:41:42.945Z,101128.03
2023-05-11T21:44:11.474Z,101124.78
2023-05-11T21:46:40.022Z,101129.72
2023-05-11T21:49:09.195Z,101125.78
2023-05-11T21:51:37.704Z,101122.72
2023-05-11T21:54:06.567Z,101126.91
2023-05-11T21:56:35.095Z,101132.56
2023-05-11T21:59:05.120Z,101127.88
2023-05-11T22:01:33.714Z,101120.91
2023-05-11T22:04:02.547Z,101117.34
2023-05-11T22:06:31.542Z,101119.88
2023-05-11T22:09:00.083Z,101117.59
2023-05-11T22:11:28.683Z,101114.97
2023-05-11T22:13:57.223Z,101119.34
2023-05-11T22:16:27.187Z,101114.56
2023-05-11T22:18:55.787Z,101113.28
2023-05-11T22:21:26.738Z,101103.56
2023-05-11T22:23:55.326Z,101112.13
2023-05-11T22:26:23.863Z,101102.00
2023-05-11T22:28:52.367Z,101103.81
2023-05-11T22:31:21.252Z,101105.47
2023-05-11T22:33:51.140Z,101099.75
2023-05-11T22:36:19.696Z,101101.50
2023-05-11T22:38:48.234Z,101099.34
2023-05-11T22:41:16.783Z,101098.72
2023-05-11T22:43:45.268Z,101099.22
2023-05-11T22:46:13.840Z,101102.81
2023-05-11T22:48:42.640Z,101101.28
2023-05-11T22:51:12.772Z,101094.63
2023-05-11T22:53:41.289Z,101098.41
2023-05-11T22:56:09.992Z,101092.13
2023-05-11T22:58:38.525Z,101094.31
2023-05-11T23:01:07.111Z,101090.00
2023-05-11T23:03:35.968Z,101088.59
2023-05-11T23:06:04.640Z,101095.31
2023-05-11T23:08:34.529Z,101094.72
2023-05-11T23:11:03.072Z,101086.63
2023-05-11T23:13:31.584Z,101081.50
2023-05-11T23:16:00.073Z,101083.16
2023-05-11T23:18:28.855Z,101084.72
2023-05-11T23:20:57.977Z,101080.03
2023-05-11T23:23:26.961Z,101073.00
2023-05-11T23:25:56.872Z,101079.94
2023-05-11T23:28:25.392Z,101073.94
2023-05-11T23:30:53.883Z,101066.63
2023-05-11T23:33:22.942Z,101070.06
2023-05-11T23:35:51.683Z,101059.44
2023-05-11T23:38:20.209Z,101058.75
2023-05-11T23:40:48.707Z,101058.94
2023-05-11T23:43:18.586Z,101069.06
2023-05-11T23:45:47.119Z,101058.25
2023-05-11T23:48:15.708Z,101054.00
2023-05-11T23:50:44.230Z,101052.19
2023-05-11T23:53:13.247Z,101053.03
2023-05-11T23:55:41.858Z,101043.06
2023-05-11T23:58:10.407Z,101046.31
